Lubbock, TX

12:02 AM CDT on June 03, 2015 (GMT -0500)
Carlisle Park | | Change Station
CLOSE
Current Station
Personal Weather Station
Location: Lubbock, TX
Elevation: 3215 ft
Nearby Weather Stations

Elev 3215 ft 33.57 °N, 101.87 °W | Updated 6 seconds ago

Clear
Clear
74.5 °F
Feels Like 77 °F
N
7.6
Wind Variable Wind from SE
Gusts 7.6 mph

Today
High -- | Low -- °F
--% Chance of Precip.
Yesterday
High -- | Low -- °F
Precip. -- in
6:37 AM 8:53 PM
Full, 100% visible
Pressure 29.81 in
Visibility 10.0 miles
Clouds Few 25000 ft
Heat Index 77 °F
Dew Point 61 °F
Humidity 62%
Rainfall 0.00 in
Snow Depth Not available.
UV 0 out of 12
Pollen 4.60 out of 12
Air Quality Not available.
Flu Activity Local Activity
METAR KLBB 030453Z 15009KT 10SM FEW250 22/17 A2995 RMK AO2 SLP092 T02170167

More Conditions Fewer Conditions

Pressure 29.81 in
Visibility 10.0 miles
Clouds Few 25000 ft
Heat Index 77 °F
Dew Point 61 °F
Humidity 62%
Rainfall 0.00 in
Snow Depth Not available.
UV 0 out of 12
Pollen 4.60 out of 12
Air Quality Not available.
Flu Activity Local Activity
METAR KLBB 030453Z 15009KT 10SM FEW250 22/17 A2995 RMK AO2 SLP092 T02170167

More Conditions Fewer Conditions

10-Day Weather Forecast

×

Almanac

Astronomy

Jun. 03, 2015 Rise Set
Actual Time
Civil Twilight
Nautical Twilight
Astronomical Twilight
Moon
Length of Visible Light
Length of Day
Tomorrow will be .
, % of the Moon is Illuminated

Today's Extremes

State Highs State Lows

Community

WunderPhotos

Upload Photos

1,826,168 photos uploaded!

WunderBlogs® & News

Nearby

Air Quality

  Air Quality AQ Index Pollutant
Not available.

Snow Depth

Station Depth Elevation

Earthquake Activity

City Distance Mag. Time & Date
Minimum magnitude displayed is 2.5.

Coastal Water Temperatures

Place Temperature

Stations

Nearby Weather Stations

Station Location Temp. Windchill Dew Point Humidity Wind Precip. Elev Updated Type